Time;durP1;ratioP1;P1;durP2;ratioP2;P2;SDS_P1;SDS_P2;PMS_P1;PMS_P2;Temp;Humidity;BMP_temperature;BMP_pressure;BME280_temperature;BME280_humidity;BME280_pressure;Samples;Min_cycle;Max_cycle;Signal;HPM_P1;HPM_P2
2023/08/16 00:01:50;;;;;;;7.57;4.93;;;;;;;;;;4988468;28;20214;-70
2023/08/16 00:04:15;;;;;;;11.40;4.78;;;;;;;;;;4987517;28;20548;-69
2023/08/16 00:06:42;;;;;;;10.23;5.25;;;;;;;;;;4986479;28;20704;-69
2023/08/16 00:09:08;;;;;;;6.50;4.60;;;;;;;;;;4973888;28;20211;-69
2023/08/16 00:11:34;;;;;;;9.15;5.55;;;;;;;;;;4987807;28;20188;-69
2023/08/16 00:13:59;;;;;;;7.57;4.78;;;;;;;;;;4968421;28;20253;-69
2023/08/16 00:16:24;;;;;;;7.88;4.75;;;;;;;;;;4989805;28;20708;-70
2023/08/16 00:18:50;;;;;;;5.95;5.13;;;;;;;;;;4992176;28;20222;-69
2023/08/16 00:21:15;;;;;;;5.20;4.50;;;;;;;;;;4993235;28;20199;-69
2023/08/16 00:23:41;;;;;;;5.85;4.10;;;;;;;;;;4975535;28;20331;-70
2023/08/16 00:26:06;;;;;;;6.55;5.25;;;;;;;;;;4991696;28;20669;-69
2023/08/16 00:28:31;;;;;;;8.00;4.63;;;;;;;;;;4993289;28;21092;-69
2023/08/16 00:30:56;;;;;;;9.00;5.18;;;;;;;;;;4993463;28;20187;-70
2023/08/16 00:33:22;;;;;;;6.97;5.13;;;;;;;;;;4992521;28;20222;-70
2023/08/16 00:35:47;;;;;;;8.18;5.68;;;;;;;;;;4994004;28;20253;-70
2023/08/16 00:38:12;;;;;;;11.35;5.65;;;;;;;;;;4993551;28;20215;-70
2023/08/16 00:40:38;;;;;;;6.72;5.28;;;;;;;;;;4990457;28;20281;-69
2023/08/16 00:43:03;;;;;;;8.13;4.68;;;;;;;;;;4991768;28;20231;-69
2023/08/16 00:45:28;;;;;;;7.32;5.90;;;;;;;;;;4992969;28;20197;-69
2023/08/16 00:47:54;;;;;;;7.35;5.15;;;;;;;;;;4992287;28;21441;-70
2023/08/16 00:50:23;;;;;;;8.48;5.53;;;;;;;;;;4974619;28;20195;-70
2023/08/16 00:52:48;;;;;;;6.78;4.90;;;;;;;;;;4991080;28;20184;-70
2023/08/16 00:55:15;;;;;;;7.53;5.18;;;;;;;;;;4991274;28;20217;-69
2023/08/16 00:57:40;;;;;;;11.73;5.07;;;;;;;;;;4988388;28;20208;-69
2023/08/16 01:00:05;;;;;;;10.20;5.38;;;;;;;;;;4991914;28;20570;-69
2023/08/16 01:02:31;;;;;;;9.25;5.68;;;;;;;;;;4989953;28;20248;-70
2023/08/16 01:04:56;;;;;;;6.50;4.78;;;;;;;;;;4992421;28;20204;-69
2023/08/16 01:07:21;;;;;;;7.32;5.05;;;;;;;;;;4992373;28;20211;-69
2023/08/16 01:09:46;;;;;;;7.10;5.15;;;;;;;;;;4993315;28;20673;-69
2023/08/16 01:12:15;;;;;;;7.40;4.32;;;;;;;;;;4992125;28;20183;-69
2023/08/16 01:14:40;;;;;;;10.52;4.80;;;;;;;;;;4986764;28;20201;-69
2023/08/16 01:17:05;;;;;;;7.25;4.32;;;;;;;;;;4991346;28;20215;-69
2023/08/16 01:19:32;;;;;;;7.60;4.68;;;;;;;;;;4990755;28;20175;-69
2023/08/16 01:22:09;;;;;;;6.43;5.10;;;;;;;;;;4991650;28;20257;-69
2023/08/16 01:24:44;;;;;;;5.50;4.65;;;;;;;;;;4992282;28;20297;-69
2023/08/16 01:27:09;;;;;;;5.30;4.55;;;;;;;;;;4992336;28;20235;-69
2023/08/16 01:29:35;;;;;;;5.80;4.93;;;;;;;;;;4992365;28;20259;-70
2023/08/16 01:32:00;;;;;;;8.10;4.75;;;;;;;;;;4991808;28;20221;-70
2023/08/16 01:34:26;;;;;;;10.20;4.40;;;;;;;;;;4992242;28;20262;-69
2023/08/16 01:36:51;;;;;;;5.22;4.00;;;;;;;;;;4990527;28;20218;-69
2023/08/16 01:39:16;;;;;;;6.45;4.45;;;;;;;;;;4991089;28;21025;-69
2023/08/16 01:41:43;;;;;;;8.40;4.88;;;;;;;;;;4974700;28;20188;-70
2023/08/16 01:44:09;;;;;;;8.15;4.47;;;;;;;;;;4987516;28;20319;-69
2023/08/16 01:46:35;;;;;;;7.43;5.05;;;;;;;;;;4989313;28;20788;-69
2023/08/16 01:49:00;;;;;;;7.22;4.60;;;;;;;;;;4991194;28;20316;-70
2023/08/16 01:51:25;;;;;;;7.97;5.45;;;;;;;;;;4990202;28;20753;-69
2023/08/16 01:53:52;;;;;;;7.07;5.68;;;;;;;;;;4990020;28;20993;-69
2023/08/16 01:56:17;;;;;;;9.77;5.65;;;;;;;;;;4971202;28;20348;-69
2023/08/16 01:58:42;;;;;;;7.65;4.95;;;;;;;;;;4992035;28;20256;-68
2023/08/16 02:01:07;;;;;;;7.50;4.97;;;;;;;;;;4988821;28;20191;-69
2023/08/16 02:03:33;;;;;;;6.47;4.65;;;;;;;;;;4990449;28;20821;-68
2023/08/16 02:05:58;;;;;;;6.47;4.90;;;;;;;;;;4990041;28;20187;-68
2023/08/16 02:08:23;;;;;;;7.93;5.55;;;;;;;;;;4991399;28;20709;-69
2023/08/16 02:10:48;;;;;;;7.22;5.18;;;;;;;;;;4990344;28;20190;-69
2023/08/16 02:13:13;;;;;;;8.95;5.22;;;;;;;;;;4989717;28;20191;-69
2023/08/16 02:15:39;;;;;;;7.50;4.88;;;;;;;;;;4989907;28;20223;-68
2023/08/16 02:18:10;;;;;;;8.70;5.50;;;;;;;;;;4990383;28;20253;-69
2023/08/16 02:20:35;;;;;;;8.57;5.00;;;;;;;;;;4990719;28;20202;-69
2023/08/16 02:23:00;;;;;;;8.57;5.82;;;;;;;;;;4990632;28;20680;-69
2023/08/16 02:25:26;;;;;;;6.85;4.55;;;;;;;;;;4990474;28;21043;-69
2023/08/16 02:27:51;;;;;;;6.72;4.95;;;;;;;;;;4972504;28;20211;-69
2023/08/16 02:30:16;;;;;;;7.55;4.90;;;;;;;;;;4972449;28;20183;-68
2023/08/16 02:32:41;;;;;;;10.80;5.18;;;;;;;;;;4990339;28;20191;-69
2023/08/16 02:35:07;;;;;;;7.53;5.50;;;;;;;;;;4971947;28;20769;-69
2023/08/16 02:37:32;;;;;;;13.68;5.82;;;;;;;;;;4972518;28;20569;-69
2023/08/16 02:39:57;;;;;;;8.05;5.07;;;;;;;;;;4973367;28;20192;-69
2023/08/16 02:42:23;;;;;;;7.50;5.35;;;;;;;;;;4989267;28;20175;-69
2023/08/16 02:44:48;;;;;;;6.40;5.00;;;;;;;;;;4989558;28;20335;-69
2023/08/16 02:47:14;;;;;;;7.95;4.68;;;;;;;;;;5001129;23;20316;-68
2023/08/16 02:49:40;;;;;;;7.72;4.20;;;;;;;;;;5025966;28;20400;-68
2023/08/16 02:52:05;;;;;;;8.88;4.68;;;;;;;;;;5028887;28;20210;-68
2023/08/16 02:54:30;;;;;;;6.85;5.13;;;;;;;;;;5027547;28;20200;-68
2023/08/16 02:56:55;;;;;;;5.95;4.80;;;;;;;;;;5028341;28;20563;-68
2023/08/16 02:59:21;;;;;;;5.93;4.35;;;;;;;;;;5009187;28;20763;-67
2023/08/16 03:01:46;;;;;;;6.65;5.00;;;;;;;;;;5007612;28;20650;-68
2023/08/16 03:04:11;;;;;;;5.65;4.38;;;;;;;;;;5006239;28;20736;-68
2023/08/16 03:06:37;;;;;;;5.57;3.63;;;;;;;;;;5007224;28;20198;-67
2023/08/16 03:09:03;;;;;;;5.97;5.00;;;;;;;;;;5008361;28;20230;-68
2023/08/16 03:11:28;;;;;;;5.65;4.55;;;;;;;;;;5007844;28;20316;-68
2023/08/16 03:13:53;;;;;;;9.90;4.18;;;;;;;;;;5009039;28;20676;-66
2023/08/16 03:16:19;;;;;;;5.30;4.20;;;;;;;;;;5007337;28;20704;-67
2023/08/16 03:18:44;;;;;;;6.13;4.50;;;;;;;;;;5008896;28;20692;-67
2023/08/16 03:21:09;;;;;;;7.28;5.25;;;;;;;;;;5008310;28;21603;-67
2023/08/16 03:23:35;;;;;;;7.38;4.60;;;;;;;;;;5006020;28;20290;-67
2023/08/16 03:26:00;;;;;;;7.30;5.07;;;;;;;;;;5007473;28;20190;-68
2023/08/16 03:28:25;;;;;;;5.88;4.60;;;;;;;;;;5008701;28;20651;-68
2023/08/16 03:30:50;;;;;;;7.38;4.63;;;;;;;;;;5004683;28;20224;-68
2023/08/16 03:33:15;;;;;;;5.30;4.18;;;;;;;;;;5007061;28;20556;-68
2023/08/16 03:35:41;;;;;;;6.18;3.80;;;;;;;;;;5006926;28;20206;-69
2023/08/16 03:38:06;;;;;;;5.82;4.78;;;;;;;;;;5008390;28;20261;-68
2023/08/16 03:40:31;;;;;;;7.15;5.15;;;;;;;;;;5007705;28;20187;-68
2023/08/16 03:42:56;;;;;;;8.85;4.60;;;;;;;;;;5008092;28;20210;-69
2023/08/16 03:45:24;;;;;;;8.13;4.38;;;;;;;;;;5006686;28;20199;-67
2023/08/16 03:47:51;;;;;;;7.95;3.90;;;;;;;;;;5007307;28;20213;-67
2023/08/16 03:50:16;;;;;;;11.82;5.93;;;;;;;;;;5007115;28;20179;-67
2023/08/16 03:52:41;;;;;;;13.20;5.22;;;;;;;;;;5007008;28;20570;-67
2023/08/16 03:55:07;;;;;;;6.13;4.72;;;;;;;;;;5007639;28;20703;-68
2023/08/16 03:57:32;;;;;;;6.78;5.22;;;;;;;;;;5007962;28;20328;-68
2023/08/16 03:59:57;;;;;;;5.90;4.60;;;;;;;;;;5008004;28;20183;-67
2023/08/16 04:02:22;;;;;;;6.50;4.65;;;;;;;;;;5007313;28;20182;-67
2023/08/16 04:04:51;;;;;;;8.23;4.95;;;;;;;;;;5008707;28;20271;-67
2023/08/16 04:07:16;;;;;;;9.50;5.13;;;;;;;;;;5007081;28;20193;-67
2023/08/16 04:09:42;;;;;;;6.00;4.82;;;;;;;;;;5008965;28;20178;-67
2023/08/16 04:12:07;;;;;;;8.27;5.15;;;;;;;;;;5008782;28;20179;-67
2023/08/16 04:14:32;;;;;;;6.82;5.20;;;;;;;;;;5006824;28;20182;-67
2023/08/16 04:16:57;;;;;;;8.40;5.35;;;;;;;;;;5005109;28;20264;-67
2023/08/16 04:19:23;;;;;;;6.60;5.25;;;;;;;;;;5007384;28;20994;-67
2023/08/16 04:21:48;;;;;;;6.45;4.72;;;;;;;;;;5007469;28;20178;-67
2023/08/16 04:24:13;;;;;;;6.28;5.00;;;;;;;;;;5005880;28;20605;-67
2023/08/16 04:26:38;;;;;;;7.30;5.05;;;;;;;;;;5006189;28;20220;-67
2023/08/16 04:29:04;;;;;;;6.88;5.00;;;;;;;;;;5008463;28;20207;-68
2023/08/16 04:31:29;;;;;;;8.50;5.00;;;;;;;;;;5001657;28;20195;-69
2023/08/16 04:33:54;;;;;;;7.45;4.78;;;;;;;;;;5006675;28;20201;-66
2023/08/16 04:36:20;;;;;;;8.30;5.93;;;;;;;;;;5007130;28;20216;-69
2023/08/16 04:38:45;;;;;;;10.55;6.03;;;;;;;;;;5007291;28;20289;-67
2023/08/16 04:41:10;;;;;;;7.65;5.75;;;;;;;;;;5007282;28;20175;-67
2023/08/16 04:43:35;;;;;;;7.35;5.07;;;;;;;;;;5005818;28;20183;-67
2023/08/16 04:46:01;;;;;;;8.00;6.32;;;;;;;;;;5007647;28;20192;-67
2023/08/16 04:48:26;;;;;;;9.02;6.13;;;;;;;;;;5008322;28;20249;-67
2023/08/16 04:50:51;;;;;;;9.02;5.68;;;;;;;;;;5006205;28;20561;-68
2023/08/16 04:53:16;;;;;;;8.18;5.78;;;;;;;;;;5007107;28;20688;-68
2023/08/16 04:55:42;;;;;;;7.18;6.28;;;;;;;;;;5010594;28;20691;-69
2023/08/16 04:58:07;;;;;;;6.75;4.95;;;;;;;;;;5009133;28;20397;-68
2023/08/16 05:00:33;;;;;;;13.80;6.47;;;;;;;;;;5012344;28;20178;-67
2023/08/16 05:02:59;;;;;;;8.25;5.80;;;;;;;;;;5010290;28;20325;-67
2023/08/16 05:05:24;;;;;;;11.43;6.10;;;;;;;;;;5007487;28;20202;-68
2023/08/16 05:07:49;;;;;;;11.25;6.28;;;;;;;;;;5009756;28;20270;-68
2023/08/16 05:10:14;;;;;;;12.57;5.35;;;;;;;;;;5008969;28;20197;-68
2023/08/16 05:12:40;;;;;;;8.50;6.05;;;;;;;;;;5006788;28;20205;-68
2023/08/16 05:15:05;;;;;;;11.18;6.15;;;;;;;;;;5010791;28;20218;-68
2023/08/16 05:17:30;;;;;;;13.65;5.82;;;;;;;;;;5010417;28;20202;-68
2023/08/16 05:19:56;;;;;;;9.95;6.60;;;;;;;;;;5010694;28;20188;-67
2023/08/16 05:22:24;;;;;;;13.45;5.85;;;;;;;;;;5011316;28;20184;-68
2023/08/16 05:24:49;;;;;;;11.95;5.82;;;;;;;;;;5011677;28;20181;-67
2023/08/16 05:27:14;;;;;;;8.68;5.35;;;;;;;;;;5008774;28;20183;-67
2023/08/16 05:29:40;;;;;;;8.07;6.25;;;;;;;;;;5011281;28;20190;-67
2023/08/16 05:32:05;;;;;;;8.68;6.00;;;;;;;;;;5011259;28;20171;-67
2023/08/16 05:34:31;;;;;;;7.45;5.63;;;;;;;;;;5010075;28;20314;-67
2023/08/16 05:36:56;;;;;;;11.52;5.57;;;;;;;;;;5011247;28;20217;-67
2023/08/16 05:39:22;;;;;;;8.95;5.60;;;;;;;;;;5010112;28;20291;-67
2023/08/16 05:41:47;;;;;;;8.32;5.63;;;;;;;;;;5011592;28;20945;-67
2023/08/16 05:44:13;;;;;;;8.82;5.15;;;;;;;;;;5009556;28;20884;-67
2023/08/16 05:46:38;;;;;;;7.00;4.65;;;;;;;;;;5007617;28;20835;-67
2023/08/16 05:49:05;;;;;;;7.07;4.72;;;;;;;;;;5010873;28;20237;-68
2023/08/16 05:51:30;;;;;;;5.80;4.65;;;;;;;;;;5011251;28;20197;-67
2023/08/16 05:53:56;;;;;;;8.93;4.78;;;;;;;;;;5010924;28;20183;-67
2023/08/16 05:56:21;;;;;;;9.00;5.03;;;;;;;;;;5009428;28;20291;-68
2023/08/16 05:58:46;;;;;;;5.00;4.15;;;;;;;;;;5008544;28;21044;-68
2023/08/16 06:01:11;;;;;;;8.55;4.32;;;;;;;;;;5004227;28;20179;-68
2023/08/16 06:03:36;;;;;;;10.52;5.60;;;;;;;;;;5009149;28;20174;-68
2023/08/16 06:06:02;;;;;;;8.10;4.25;;;;;;;;;;5007440;28;20207;-67
2023/08/16 06:08:27;;;;;;;5.85;3.40;;;;;;;;;;5004500;28;20249;-67
2023/08/16 06:10:52;;;;;;;5.95;3.53;;;;;;;;;;5007243;28;20559;-67
2023/08/16 06:13:17;;;;;;;6.32;3.30;;;;;;;;;;5011133;28;20286;-68
2023/08/16 06:15:43;;;;;;;8.48;4.13;;;;;;;;;;5002899;28;20792;-68
2023/08/16 06:18:08;;;;;;;6.35;3.92;;;;;;;;;;5007323;28;20692;-67
2023/08/16 06:20:34;;;;;;;5.18;3.63;;;;;;;;;;5009840;28;20179;-68
2023/08/16 06:22:59;;;;;;;6.22;3.67;;;;;;;;;;5011050;28;20175;-68
2023/08/16 06:25:25;;;;;;;4.82;3.45;;;;;;;;;;5010141;28;20320;-67
2023/08/16 06:27:51;;;;;;;4.03;3.28;;;;;;;;;;5009537;28;20217;-68
2023/08/16 06:30:16;;;;;;;6.15;3.42;;;;;;;;;;5009261;28;20197;-68
2023/08/16 06:32:42;;;;;;;5.65;3.92;;;;;;;;;;5010259;28;20298;-68
2023/08/16 06:35:08;;;;;;;4.75;2.85;;;;;;;;;;5008887;28;20206;-68
2023/08/16 06:37:34;;;;;;;8.65;3.13;;;;;;;;;;5009335;28;20321;-68
2023/08/16 06:39:59;;;;;;;4.18;3.00;;;;;;;;;;5007119;28;20237;-68
2023/08/16 06:42:25;;;;;;;4.25;2.60;;;;;;;;;;5007599;28;20191;-68
2023/08/16 06:44:50;;;;;;;4.40;2.95;;;;;;;;;;5008440;28;20182;-68
2023/08/16 06:47:16;;;;;;;8.50;2.63;;;;;;;;;;5010061;28;20175;-68
2023/08/16 06:49:41;;;;;;;6.15;2.50;;;;;;;;;;5010654;28;20182;-67
2023/08/16 06:52:06;;;;;;;5.32;2.10;;;;;;;;;;5013361;28;20554;-68
2023/08/16 06:54:32;;;;;;;3.53;2.28;;;;;;;;;;5020178;28;20194;-67
2023/08/16 06:56:57;;;;;;;6.18;2.78;;;;;;;;;;5015125;28;20249;-67
2023/08/16 06:59:27;;;;;;;8.02;1.65;;;;;;;;;;5023409;28;20316;-68
2023/08/16 07:01:52;;;;;;;3.88;1.90;;;;;;;;;;5015940;28;20221;-67
2023/08/16 07:04:17;;;;;;;3.90;1.88;;;;;;;;;;5019760;28;20235;-67
2023/08/16 07:06:42;;;;;;;4.50;1.98;;;;;;;;;;5018076;28;20190;-67
2023/08/16 07:09:08;;;;;;;8.43;1.73;;;;;;;;;;5020079;28;20771;-67
2023/08/16 07:11:33;;;;;;;2.83;1.50;;;;;;;;;;5018974;28;20213;-66
2023/08/16 07:14:00;;;;;;;7.32;1.88;;;;;;;;;;5022939;28;20189;-67
2023/08/16 07:16:25;;;;;;;6.93;1.63;;;;;;;;;;5019151;28;20199;-67
2023/08/16 07:18:50;;;;;;;2.00;1.58;;;;;;;;;;5011156;28;20202;-67
2023/08/16 07:21:16;;;;;;;4.57;2.05;;;;;;;;;;5011202;28;21036;-67
2023/08/16 07:23:42;;;;;;;1.80;1.15;;;;;;;;;;5011335;28;20664;-67
2023/08/16 07:26:07;;;;;;;5.03;1.70;;;;;;;;;;5011210;28;20221;-67
2023/08/16 07:28:32;;;;;;;2.78;1.40;;;;;;;;;;5009370;28;20256;-68
2023/08/16 07:30:58;;;;;;;3.20;1.80;;;;;;;;;;5011868;28;20186;-68
2023/08/16 07:33:23;;;;;;;1.90;1.23;;;;;;;;;;5015312;28;20631;-68
2023/08/16 07:35:49;;;;;;;3.20;1.33;;;;;;;;;;5016467;28;20704;-67
2023/08/16 07:38:14;;;;;;;4.43;1.52;;;;;;;;;;5012674;28;20300;-67
2023/08/16 07:40:39;;;;;;;2.63;1.30;;;;;;;;;;5010197;28;20244;-68
2023/08/16 07:43:04;;;;;;;5.00;1.30;;;;;;;;;;5012379;28;20178;-67
2023/08/16 07:45:30;;;;;;;5.88;1.38;;;;;;;;;;5008687;28;20233;-68
2023/08/16 07:47:55;;;;;;;1.98;1.27;;;;;;;;;;5007014;28;20799;-68
2023/08/16 07:50:20;;;;;;;3.88;1.38;;;;;;;;;;5008890;28;20190;-66
2023/08/16 07:52:45;;;;;;;4.70;1.48;;;;;;;;;;5008304;28;20202;-66
2023/08/16 07:55:11;;;;;;;4.00;1.40;;;;;;;;;;5008874;28;20203;-66
2023/08/16 07:57:36;;;;;;;1.05;0.93;;;;;;;;;;5007688;28;20232;-67
2023/08/16 08:00:03;;;;;;;1.58;1.10;;;;;;;;;;5008181;28;20189;-67
2023/08/16 08:02:31;;;;;;;3.55;1.15;;;;;;;;;;5005250;28;20183;-67
2023/08/16 08:05:01;;;;;;;2.42;1.00;;;;;;;;;;5007117;28;20605;-68
2023/08/16 08:07:26;;;;;;;3.13;1.17;;;;;;;;;;5006095;28;20225;-67
2023/08/16 08:09:51;;;;;;;3.17;1.38;;;;;;;;;;5007337;28;20643;-67
2023/08/16 08:12:16;;;;;;;2.97;1.00;;;;;;;;;;5003062;28;20211;-67
2023/08/16 08:14:42;;;;;;;4.25;0.90;;;;;;;;;;5005629;28;20233;-67
2023/08/16 08:17:07;;;;;;;1.98;1.10;;;;;;;;;;5006386;28;20210;-68
2023/08/16 08:19:32;;;;;;;1.77;0.90;;;;;;;;;;5009584;28;20833;-68
2023/08/16 08:21:57;;;;;;;1.95;0.90;;;;;;;;;;5008549;28;20200;-67
2023/08/16 08:24:23;;;;;;;2.30;0.90;;;;;;;;;;5004796;28;21043;-67
2023/08/16 08:26:48;;;;;;;4.90;1.73;;;;;;;;;;5006914;28;20229;-68
2023/08/16 08:29:13;;;;;;;1.90;0.88;;;;;;;;;;5008603;28;20974;-67
2023/08/16 08:31:38;;;;;;;1.30;0.80;;;;;;;;;;5009960;28;20660;-67
2023/08/16 08:34:04;;;;;;;2.05;1.10;;;;;;;;;;5012361;28;20240;-69
2023/08/16 08:36:29;;;;;;;2.45;0.70;;;;;;;;;;5011760;28;20279;-68
2023/08/16 08:38:54;;;;;;;1.48;0.70;;;;;;;;;;5009173;28;20240;-68
2023/08/16 08:41:23;;;;;;;2.70;1.00;;;;;;;;;;5011772;28;20206;-68
2023/08/16 08:43:48;;;;;;;1.35;0.77;;;;;;;;;;5009480;28;20183;-68
2023/08/16 08:46:14;;;;;;;0.98;0.60;;;;;;;;;;5002596;28;20202;-66
2023/08/16 08:48:40;;;;;;;2.40;0.60;;;;;;;;;;5005442;22;20238;-71
2023/08/16 08:51:05;;;;;;;1.65;0.70;;;;;;;;;;4989355;28;21117;-71
2023/08/16 08:53:30;;;;;;;2.15;0.98;;;;;;;;;;4989558;28;20654;-71
2023/08/16 08:55:56;;;;;;;1.55;1.00;;;;;;;;;;4986174;28;20273;-71
2023/08/16 08:58:22;;;;;;;2.45;1.05;;;;;;;;;;4987984;28;20207;-71
2023/08/16 09:00:51;;;;;;;2.70;0.90;;;;;;;;;;4990885;28;20540;-71
2023/08/16 09:03:17;;;;;;;2.25;0.93;;;;;;;;;;4992584;28;20696;-70
2023/08/16 09:05:44;;;;;;;3.10;0.68;;;;;;;;;;4970634;28;20191;-70
2023/08/16 09:08:13;;;;;;;4.25;0.75;;;;;;;;;;4992549;28;20337;-70
2023/08/16 09:10:38;;;;;;;2.75;0.90;;;;;;;;;;4990986;28;20186;-70
2023/08/16 09:13:04;;;;;;;3.97;1.58;;;;;;;;;;4992525;28;20192;-70
2023/08/16 09:15:29;;;;;;;2.55;0.77;;;;;;;;;;4991877;28;20306;-70
2023/08/16 09:18:04;;;;;;;0.60;0.50;;;;;;;;;;4988875;28;20221;-71
2023/08/16 09:20:30;;;;;;;3.88;1.08;;;;;;;;;;4967197;28;20423;-70
2023/08/16 09:22:55;;;;;;;2.55;0.82;;;;;;;;;;4971510;28;20521;-70
2023/08/16 09:25:21;;;;;;;1.37;0.60;;;;;;;;;;4992411;28;20190;-71
2023/08/16 09:27:46;;;;;;;1.65;0.60;;;;;;;;;;4987716;28;20440;-71
2023/08/16 09:30:12;;;;;;;3.83;1.80;;;;;;;;;;4989869;28;20195;-70
2023/08/16 09:32:37;;;;;;;3.60;1.38;;;;;;;;;;4986620;28;23107;-71
2023/08/16 09:35:03;;;;;;;1.95;0.70;;;;;;;;;;4992536;28;20216;-70
2023/08/16 09:37:30;;;;;;;2.60;0.55;;;;;;;;;;4991226;28;20303;-71
2023/08/16 09:39:56;;;;;;;1.33;0.50;;;;;;;;;;4988237;28;20748;-70
2023/08/16 09:42:29;;;;;;;4.15;1.10;;;;;;;;;;4988171;28;20270;-70
2023/08/16 09:44:54;;;;;;;1.35;0.90;;;;;;;;;;4992035;28;20186;-70
2023/08/16 09:47:20;;;;;;;1.98;1.10;;;;;;;;;;4991474;28;20246;-70
2023/08/16 09:49:46;;;;;;;1.85;0.70;;;;;;;;;;4990995;28;20219;-71
2023/08/16 09:52:11;;;;;;;1.25;0.70;;;;;;;;;;4991196;28;20271;-70
2023/08/16 09:54:37;;;;;;;1.80;0.50;;;;;;;;;;4990636;28;20179;-70
2023/08/16 09:57:02;;;;;;;1.17;0.60;;;;;;;;;;4990796;28;20215;-70
2023/08/16 09:59:28;;;;;;;2.28;0.80;;;;;;;;;;4991904;28;20210;-70
2023/08/16 10:01:54;;;;;;;0.88;0.82;;;;;;;;;;4992049;28;20646;-70
2023/08/16 10:04:20;;;;;;;2.85;0.60;;;;;;;;;;4959826;28;20206;-71
2023/08/16 10:06:45;;;;;;;1.38;0.77;;;;;;;;;;4989498;28;20653;-71
2023/08/16 10:09:12;;;;;;;2.17;0.63;;;;;;;;;;4992025;28;20206;-70
2023/08/16 10:11:38;;;;;;;2.00;0.60;;;;;;;;;;4990725;28;20424;-71
2023/08/16 10:14:06;;;;;;;3.17;0.60;;;;;;;;;;4991240;28;20875;-70
2023/08/16 10:16:33;;;;;;;1.52;0.57;;;;;;;;;;4991732;28;20257;-70
2023/08/16 10:19:00;;;;;;;1.73;0.50;;;;;;;;;;4991745;28;20206;-70
2023/08/16 10:21:27;;;;;;;3.33;0.60;;;;;;;;;;4991635;28;20193;-71
2023/08/16 10:23:55;;;;;;;2.42;0.50;;;;;;;;;;4959982;28;20241;-69
2023/08/16 10:26:22;;;;;;;1.85;0.70;;;;;;;;;;4989124;28;20191;-70
2023/08/16 10:28:50;;;;;;;1.13;0.50;;;;;;;;;;4990838;28;21146;-70
2023/08/16 10:31:17;;;;;;;0.40;0.40;;;;;;;;;;4990517;28;20187;-70
2023/08/16 10:33:46;;;;;;;1.30;0.50;;;;;;;;;;4990808;28;20194;-70
2023/08/16 10:36:11;;;;;;;1.90;0.80;;;;;;;;;;4991149;28;20203;-71
2023/08/16 10:38:37;;;;;;;1.55;0.60;;;;;;;;;;4990954;28;20715;-70
2023/08/16 10:41:02;;;;;;;0.88;0.60;;;;;;;;;;4989269;28;20833;-70
2023/08/16 10:43:32;;;;;;;3.97;0.82;;;;;;;;;;4976530;28;20180;-70
2023/08/16 10:45:57;;;;;;;1.35;0.57;;;;;;;;;;4972206;28;20436;-70
2023/08/16 10:48:22;;;;;;;1.90;0.80;;;;;;;;;;4972527;28;20235;-70
2023/08/16 10:50:55;;;;;;;1.37;0.70;;;;;;;;;;4990671;28;20576;-72
2023/08/16 10:53:22;;;;;;;1.13;0.55;;;;;;;;;;4991207;28;20425;-73
2023/08/16 10:55:55;;;;;;;2.35;0.50;;;;;;;;;;4989374;28;20234;-72
2023/08/16 10:58:23;;;;;;;1.92;0.80;;;;;;;;;;4991286;28;20199;-72
2023/08/16 11:00:55;;;;;;;1.30;0.55;;;;;;;;;;4991403;28;20180;-72
2023/08/16 11:03:20;;;;;;;0.98;0.60;;;;;;;;;;4986155;28;20273;-72
2023/08/16 11:05:45;;;;;;;0.60;0.43;;;;;;;;;;4970991;28;20244;-71
2023/08/16 11:08:11;;;;;;;1.42;0.60;;;;;;;;;;4971851;28;20499;-71
2023/08/16 11:10:37;;;;;;;0.88;0.70;;;;;;;;;;4991958;28;20187;-71
2023/08/16 11:13:11;;;;;;;2.28;0.40;;;;;;;;;;4972532;28;20187;-71
2023/08/16 11:15:37;;;;;;;2.53;1.00;;;;;;;;;;4989073;28;20210;-71
2023/08/16 11:18:02;;;;;;;2.53;0.95;;;;;;;;;;4987609;28;20209;-71
2023/08/16 11:20:29;;;;;;;0.73;0.47;;;;;;;;;;4982926;28;20221;-71
2023/08/16 11:22:54;;;;;;;1.58;0.65;;;;;;;;;;4990484;28;20552;-72
2023/08/16 11:25:19;;;;;;;0.57;0.38;;;;;;;;;;4991395;28;20217;-71
2023/08/16 11:27:45;;;;;;;1.13;1.03;;;;;;;;;;4971555;28;20253;-71
2023/08/16 11:30:11;;;;;;;2.50;0.52;;;;;;;;;;4973795;28;20426;-72
2023/08/16 11:32:37;;;;;;;2.25;0.60;;;;;;;;;;4991155;28;21297;-71
2023/08/16 11:35:09;;;;;;;1.40;0.55;;;;;;;;;;4991137;28;20809;-71
2023/08/16 11:37:35;;;;;;;1.13;0.38;;;;;;;;;;4970223;28;20183;-71
2023/08/16 11:40:00;;;;;;;2.60;0.90;;;;;;;;;;4990515;28;20210;-73
2023/08/16 11:42:26;;;;;;;4.35;0.70;;;;;;;;;;4973148;28;20687;-72
2023/08/16 11:44:52;;;;;;;2.58;0.73;;;;;;;;;;4990016;28;20191;-71
2023/08/16 11:47:17;;;;;;;1.43;0.47;;;;;;;;;;4989374;28;20211;-72
2023/08/16 11:49:42;;;;;;;5.60;1.13;;;;;;;;;;4990618;28;20471;-71
2023/08/16 11:52:07;;;;;;;4.43;0.70;;;;;;;;;;4990766;28;20786;-72
2023/08/16 11:54:32;;;;;;;6.00;0.60;;;;;;;;;;4986258;28;20432;-72
2023/08/16 11:56:59;;;;;;;1.58;0.52;;;;;;;;;;4988751;28;20534;-73
2023/08/16 11:59:28;;;;;;;1.98;0.80;;;;;;;;;;4990161;28;21495;-72
2023/08/16 12:01:55;;;;;;;9.93;1.35;;;;;;;;;;4990540;28;20602;-72
2023/08/16 12:04:20;;;;;;;1.95;0.82;;;;;;;;;;4990048;28;20684;-72
2023/08/16 12:06:46;;;;;;;4.72;0.60;;;;;;;;;;4991143;28;20178;-72
2023/08/16 12:09:14;;;;;;;2.20;0.70;;;;;;;;;;4990565;28;20246;-71
2023/08/16 12:11:39;;;;;;;3.10;0.85;;;;;;;;;;4987887;28;20201;-72
2023/08/16 12:14:05;;;;;;;1.30;0.60;;;;;;;;;;4990539;28;20190;-72
2023/08/16 12:16:31;;;;;;;2.80;0.63;;;;;;;;;;4984740;28;20256;-72
2023/08/16 12:18:57;;;;;;;3.45;0.75;;;;;;;;;;4970764;28;20214;-72
2023/08/16 12:21:23;;;;;;;2.92;0.80;;;;;;;;;;4990719;28;20183;-72
2023/08/16 12:23:48;;;;;;;1.65;0.88;;;;;;;;;;4973756;28;20183;-72
2023/08/16 12:26:13;;;;;;;1.55;0.70;;;;;;;;;;4989322;28;20990;-72
2023/08/16 12:28:39;;;;;;;1.75;0.85;;;;;;;;;;4971990;28;20748;-71
2023/08/16 12:31:04;;;;;;;2.63;0.63;;;;;;;;;;4969844;28;20289;-71
2023/08/16 12:33:30;;;;;;;2.85;0.75;;;;;;;;;;4988052;28;20577;-70
2023/08/16 12:35:55;;;;;;;1.67;0.60;;;;;;;;;;4968900;28;20213;-71
2023/08/16 12:38:20;;;;;;;1.70;0.82;;;;;;;;;;4988515;28;21001;-72
2023/08/16 12:40:45;;;;;;;0.97;0.87;;;;;;;;;;4991545;28;20215;-72
2023/08/16 12:43:11;;;;;;;1.80;0.83;;;;;;;;;;4990796;28;20465;-73
2023/08/16 12:45:36;;;;;;;1.92;0.73;;;;;;;;;;4991480;28;20409;-72
2023/08/16 12:48:02;;;;;;;1.35;0.70;;;;;;;;;;4989814;28;20214;-73
2023/08/16 12:50:27;;;;;;;2.47;0.70;;;;;;;;;;4990759;28;20242;-73
2023/08/16 12:52:52;;;;;;;1.17;0.85;;;;;;;;;;4984275;28;20183;-73
2023/08/16 12:55:17;;;;;;;0.90;0.65;;;;;;;;;;4989880;28;20209;-72
2023/08/16 12:57:43;;;;;;;1.20;0.80;;;;;;;;;;4989706;28;20775;-72
2023/08/16 13:00:11;;;;;;;2.70;0.65;;;;;;;;;;4990814;28;20257;-72
2023/08/16 13:02:37;;;;;;;1.98;0.68;;;;;;;;;;4990934;28;20687;-72
2023/08/16 13:05:02;;;;;;;2.35;0.80;;;;;;;;;;4988843;28;20369;-72
2023/08/16 13:07:27;;;;;;;1.88;1.02;;;;;;;;;;4990499;28;20212;-73
2023/08/16 13:09:52;;;;;;;2.30;0.77;;;;;;;;;;4989860;28;20280;-72
2023/08/16 13:12:17;;;;;;;3.27;0.70;;;;;;;;;;4989724;28;20661;-74
2023/08/16 13:14:43;;;;;;;1.07;0.70;;;;;;;;;;4990197;28;20455;-72
2023/08/16 13:17:08;;;;;;;2.63;0.73;;;;;;;;;;4991597;28;20517;-71
2023/08/16 13:19:33;;;;;;;1.45;0.80;;;;;;;;;;4994694;28;20670;-71
2023/08/16 13:21:58;;;;;;;2.28;0.80;;;;;;;;;;4994839;28;20253;-71
2023/08/16 13:24:24;;;;;;;1.27;0.70;;;;;;;;;;4993607;28;20854;-71
2023/08/16 13:26:49;;;;;;;1.15;0.60;;;;;;;;;;4988547;28;20191;-71
2023/08/16 13:29:15;;;;;;;1.48;0.75;;;;;;;;;;4991434;28;20215;-71
2023/08/16 13:31:40;;;;;;;2.25;0.80;;;;;;;;;;4992420;28;20199;-71
2023/08/16 13:34:05;;;;;;;1.08;0.90;;;;;;;;;;4976077;28;20187;-71
2023/08/16 13:36:31;;;;;;;1.63;0.90;;;;;;;;;;4990975;28;20292;-72
2023/08/16 13:38:56;;;;;;;0.98;0.63;;;;;;;;;;4990894;28;20475;-71
2023/08/16 13:41:22;;;;;;;3.67;1.02;;;;;;;;;;4991662;28;20388;-72
2023/08/16 13:43:47;;;;;;;1.55;0.80;;;;;;;;;;4992010;28;20220;-72
2023/08/16 13:46:12;;;;;;;1.60;0.80;;;;;;;;;;4992308;28;20183;-72
2023/08/16 13:48:38;;;;;;;0.68;0.50;;;;;;;;;;4974657;28;20471;-72
2023/08/16 13:51:03;;;;;;;2.60;0.80;;;;;;;;;;4992153;28;20190;-71
2023/08/16 13:53:28;;;;;;;2.27;0.60;;;;;;;;;;4991715;28;21152;-71
2023/08/16 13:55:54;;;;;;;1.80;0.60;;;;;;;;;;4993832;28;20452;-71
2023/08/16 13:58:20;;;;;;;2.95;0.60;;;;;;;;;;4993391;28;20435;-71
2023/08/16 14:00:47;;;;;;;0.90;0.70;;;;;;;;;;4993030;28;20553;-71
2023/08/16 14:03:12;;;;;;;0.73;0.60;;;;;;;;;;4992881;28;20174;-71
2023/08/16 14:05:37;;;;;;;0.98;0.80;;;;;;;;;;4992106;28;20195;-71
2023/08/16 14:08:03;;;;;;;3.50;0.70;;;;;;;;;;4992722;28;20210;-71
2023/08/16 14:10:30;;;;;;;1.95;0.77;;;;;;;;;;4994052;28;20412;-71
2023/08/16 14:12:55;;;;;;;0.77;0.40;;;;;;;;;;4992393;28;21157;-71
2023/08/16 14:15:20;;;;;;;2.27;0.80;;;;;;;;;;4975073;28;20217;-71
2023/08/16 14:17:45;;;;;;;1.83;0.70;;;;;;;;;;4993176;28;20492;-71
2023/08/16 14:20:11;;;;;;;1.33;0.67;;;;;;;;;;4992493;28;20183;-71
2023/08/16 14:22:36;;;;;;;1.98;1.20;;;;;;;;;;4989195;28;20465;-71
2023/08/16 14:25:01;;;;;;;8.07;1.17;;;;;;;;;;4991069;28;20474;-71
2023/08/16 14:27:27;;;;;;;2.10;1.00;;;;;;;;;;4985776;28;23085;-73
2023/08/16 14:29:52;;;;;;;2.65;0.98;;;;;;;;;;4974324;28;20210;-72
2023/08/16 14:32:17;;;;;;;2.73;0.90;;;;;;;;;;4991679;28;20183;-71
2023/08/16 14:34:42;;;;;;;1.13;0.80;;;;;;;;;;4991943;28;20900;-71